sensor_id;sensor_type;location;lat;lon;timestamp;P1;durP1;ratioP1;P2;durP2;ratioP2
76552;SDS011;65395;53.168;18.156;2023-05-29T00:00:45;5.50;;;2.60;;
76552;SDS011;65395;53.168;18.156;2023-05-29T00:03:24;5.20;;;2.30;;
76552;SDS011;65395;53.168;18.156;2023-05-29T00:05:51;5.60;;;2.00;;
76552;SDS011;65395;53.168;18.156;2023-05-29T00:08:18;5.00;;;2.10;;
76552;SDS011;65395;53.168;18.156;2023-05-29T00:10:45;4.40;;;2.30;;
76552;SDS011;65395;53.168;18.156;2023-05-29T00:13:12;6.60;;;2.40;;
76552;SDS011;65395;53.168;18.156;2023-05-29T00:15:38;8.60;;;3.10;;
76552;SDS011;65395;53.168;18.156;2023-05-29T00:18:05;9.90;;;2.70;;
76552;SDS011;65395;53.168;18.156;2023-05-29T00:20:33;4.80;;;2.40;;
76552;SDS011;65395;53.168;18.156;2023-05-29T00:23:00;8.80;;;2.50;;
76552;SDS011;65395;53.168;18.156;2023-05-29T00:25:28;6.90;;;2.40;;
76552;SDS011;65395;53.168;18.156;2023-05-29T00:27:55;5.80;;;2.40;;
76552;SDS011;65395;53.168;18.156;2023-05-29T00:30:22;4.90;;;2.40;;
76552;SDS011;65395;53.168;18.156;2023-05-29T00:32:49;7.20;;;2.60;;
76552;SDS011;65395;53.168;18.156;2023-05-29T00:35:19;6.70;;;2.30;;
76552;SDS011;65395;53.168;18.156;2023-05-29T00:37:47;8.10;;;2.30;;
76552;SDS011;65395;53.168;18.156;2023-05-29T00:40:13;6.60;;;2.40;;
76552;SDS011;65395;53.168;18.156;2023-05-29T00:42:40;7.70;;;2.70;;
76552;SDS011;65395;53.168;18.156;2023-05-29T00:45:07;7.40;;;2.50;;
76552;SDS011;65395;53.168;18.156;2023-05-29T00:47:34;5.20;;;2.40;;
76552;SDS011;65395;53.168;18.156;2023-05-29T00:50:01;6.30;;;2.60;;
76552;SDS011;65395;53.168;18.156;2023-05-29T00:52:29;5.80;;;2.40;;
76552;SDS011;65395;53.168;18.156;2023-05-29T00:54:56;6.80;;;2.70;;
76552;SDS011;65395;53.168;18.156;2023-05-29T00:57:23;5.20;;;2.70;;
76552;SDS011;65395;53.168;18.156;2023-05-29T00:59:50;4.60;;;2.40;;
76552;SDS011;65395;53.168;18.156;2023-05-29T01:02:17;6.70;;;2.40;;
76552;SDS011;65395;53.168;18.156;2023-05-29T01:04:46;5.40;;;2.40;;
76552;SDS011;65395;53.168;18.156;2023-05-29T01:07:12;8.30;;;2.50;;
76552;SDS011;65395;53.168;18.156;2023-05-29T01:09:40;7.00;;;2.60;;
76552;SDS011;65395;53.168;18.156;2023-05-29T01:20:42;4.80;;;2.30;;
76552;SDS011;65395;53.168;18.156;2023-05-29T01:23:27;5.40;;;2.70;;
76552;SDS011;65395;53.168;18.156;2023-05-29T01:26:10;4.40;;;2.10;;
76552;SDS011;65395;53.168;18.156;2023-05-29T01:28:50;4.40;;;2.10;;
76552;SDS011;65395;53.168;18.156;2023-05-29T01:31:21;4.30;;;2.20;;
76552;SDS011;65395;53.168;18.156;2023-05-29T01:33:52;4.60;;;2.70;;
76552;SDS011;65395;53.168;18.156;2023-05-29T01:36:21;5.70;;;2.50;;
76552;SDS011;65395;53.168;18.156;2023-05-29T01:38:50;5.60;;;2.20;;
76552;SDS011;65395;53.168;18.156;2023-05-29T01:41:18;6.00;;;2.20;;
76552;SDS011;65395;53.168;18.156;2023-05-29T01:43:47;5.60;;;2.30;;
76552;SDS011;65395;53.168;18.156;2023-05-29T01:46:15;4.90;;;2.40;;
76552;SDS011;65395;53.168;18.156;2023-05-29T01:48:44;6.00;;;2.30;;
76552;SDS011;65395;53.168;18.156;2023-05-29T01:51:11;26.30;;;3.80;;
76552;SDS011;65395;53.168;18.156;2023-05-29T01:53:39;36.80;;;4.00;;
76552;SDS011;65395;53.168;18.156;2023-05-29T01:56:08;14.60;;;2.70;;
76552;SDS011;65395;53.168;18.156;2023-05-29T01:58:37;8.80;;;2.60;;
76552;SDS011;65395;53.168;18.156;2023-05-29T02:01:05;5.90;;;2.10;;
76552;SDS011;65395;53.168;18.156;2023-05-29T02:03:33;8.10;;;2.40;;
76552;SDS011;65395;53.168;18.156;2023-05-29T02:06:00;9.20;;;2.40;;
76552;SDS011;65395;53.168;18.156;2023-05-29T02:08:27;11.40;;;3.10;;
76552;SDS011;65395;53.168;18.156;2023-05-29T02:10:54;10.50;;;2.60;;
76552;SDS011;65395;53.168;18.156;2023-05-29T02:13:21;9.60;;;2.40;;
76552;SDS011;65395;53.168;18.156;2023-05-29T02:15:48;9.10;;;2.40;;
76552;SDS011;65395;53.168;18.156;2023-05-29T02:18:16;5.80;;;2.40;;
76552;SDS011;65395;53.168;18.156;2023-05-29T02:20:44;6.60;;;2.30;;
76552;SDS011;65395;53.168;18.156;2023-05-29T02:23:17;7.70;;;2.30;;
76552;SDS011;65395;53.168;18.156;2023-05-29T02:25:45;8.20;;;2.60;;
76552;SDS011;65395;53.168;18.156;2023-05-29T02:28:12;8.70;;;2.40;;
76552;SDS011;65395;53.168;18.156;2023-05-29T02:30:39;8.90;;;2.30;;
76552;SDS011;65395;53.168;18.156;2023-05-29T02:33:09;5.80;;;2.30;;
76552;SDS011;65395;53.168;18.156;2023-05-29T02:35:35;7.30;;;2.70;;
76552;SDS011;65395;53.168;18.156;2023-05-29T02:38:04;5.40;;;2.30;;
76552;SDS011;65395;53.168;18.156;2023-05-29T02:40:30;6.10;;;2.50;;
76552;SDS011;65395;53.168;18.156;2023-05-29T02:43:00;8.20;;;2.50;;
76552;SDS011;65395;53.168;18.156;2023-05-29T02:45:26;4.50;;;2.70;;
76552;SDS011;65395;53.168;18.156;2023-05-29T02:47:54;4.10;;;2.30;;
76552;SDS011;65395;53.168;18.156;2023-05-29T02:50:20;6.10;;;2.50;;
76552;SDS011;65395;53.168;18.156;2023-05-29T02:52:47;6.30;;;2.40;;
76552;SDS011;65395;53.168;18.156;2023-05-29T02:55:14;5.60;;;2.30;;
76552;SDS011;65395;53.168;18.156;2023-05-29T02:57:41;3.60;;;2.00;;
76552;SDS011;65395;53.168;18.156;2023-05-29T03:00:08;15.80;;;3.00;;
76552;SDS011;65395;53.168;18.156;2023-05-29T03:02:35;6.40;;;2.80;;
76552;SDS011;65395;53.168;18.156;2023-05-29T03:05:02;6.20;;;2.40;;
76552;SDS011;65395;53.168;18.156;2023-05-29T03:07:29;7.80;;;2.40;;
76552;SDS011;65395;53.168;18.156;2023-05-29T03:09:56;4.90;;;2.20;;
76552;SDS011;65395;53.168;18.156;2023-05-29T03:12:23;5.60;;;2.60;;
76552;SDS011;65395;53.168;18.156;2023-05-29T03:14:50;5.30;;;2.60;;
76552;SDS011;65395;53.168;18.156;2023-05-29T03:17:19;6.60;;;2.50;;
76552;SDS011;65395;53.168;18.156;2023-05-29T03:19:47;8.40;;;2.90;;
76552;SDS011;65395;53.168;18.156;2023-05-29T03:22:14;11.00;;;3.80;;
76552;SDS011;65395;53.168;18.156;2023-05-29T03:24:41;27.00;;;4.90;;
76552;SDS011;65395;53.168;18.156;2023-05-29T03:27:08;22.70;;;4.70;;
76552;SDS011;65395;53.168;18.156;2023-05-29T03:29:36;7.60;;;3.30;;
76552;SDS011;65395;53.168;18.156;2023-05-29T03:32:03;6.20;;;3.30;;
76552;SDS011;65395;53.168;18.156;2023-05-29T03:34:32;16.90;;;4.10;;
76552;SDS011;65395;53.168;18.156;2023-05-29T03:37:00;51.30;;;5.30;;
76552;SDS011;65395;53.168;18.156;2023-05-29T03:39:28;35.20;;;4.20;;
76552;SDS011;65395;53.168;18.156;2023-05-29T03:41:57;17.60;;;3.40;;
76552;SDS011;65395;53.168;18.156;2023-05-29T03:44:24;18.50;;;3.50;;
76552;SDS011;65395;53.168;18.156;2023-05-29T03:46:51;18.60;;;3.30;;
76552;SDS011;65395;53.168;18.156;2023-05-29T03:49:17;14.40;;;4.10;;
76552;SDS011;65395;53.168;18.156;2023-05-29T03:51:44;13.30;;;3.20;;
76552;SDS011;65395;53.168;18.156;2023-05-29T03:54:11;11.30;;;3.80;;
76552;SDS011;65395;53.168;18.156;2023-05-29T03:56:38;11.10;;;4.00;;
76552;SDS011;65395;53.168;18.156;2023-05-29T03:59:04;9.30;;;4.30;;
76552;SDS011;65395;53.168;18.156;2023-05-29T04:01:31;12.50;;;4.70;;
76552;SDS011;65395;53.168;18.156;2023-05-29T04:03:58;13.90;;;4.30;;
76552;SDS011;65395;53.168;18.156;2023-05-29T04:06:25;11.50;;;3.90;;
76552;SDS011;65395;53.168;18.156;2023-05-29T04:08:52;12.10;;;4.50;;
76552;SDS011;65395;53.168;18.156;2023-05-29T04:11:19;15.50;;;4.90;;
76552;SDS011;65395;53.168;18.156;2023-05-29T04:13:47;16.50;;;5.50;;
76552;SDS011;65395;53.168;18.156;2023-05-29T04:16:15;16.50;;;4.90;;
76552;SDS011;65395;53.168;18.156;2023-05-29T04:18:42;9.70;;;4.60;;
76552;SDS011;65395;53.168;18.156;2023-05-29T04:21:08;9.00;;;4.90;;
76552;SDS011;65395;53.168;18.156;2023-05-29T04:23:36;13.70;;;4.10;;
76552;SDS011;65395;53.168;18.156;2023-05-29T04:26:04;31.60;;;5.40;;
76552;SDS011;65395;53.168;18.156;2023-05-29T04:28:32;10.80;;;4.80;;
76552;SDS011;65395;53.168;18.156;2023-05-29T04:31:00;10.90;;;4.30;;
76552;SDS011;65395;53.168;18.156;2023-05-29T04:33:27;12.90;;;4.10;;
76552;SDS011;65395;53.168;18.156;2023-05-29T04:35:56;10.90;;;4.40;;
76552;SDS011;65395;53.168;18.156;2023-05-29T04:38:23;9.50;;;4.00;;
76552;SDS011;65395;53.168;18.156;2023-05-29T04:40:53;12.00;;;5.20;;
76552;SDS011;65395;53.168;18.156;2023-05-29T04:43:24;9.70;;;4.80;;
76552;SDS011;65395;53.168;18.156;2023-05-29T04:46:02;8.70;;;4.90;;
76552;SDS011;65395;53.168;18.156;2023-05-29T04:48:30;11.70;;;5.00;;
76552;SDS011;65395;53.168;18.156;2023-05-29T04:50:57;14.60;;;6.40;;
76552;SDS011;65395;53.168;18.156;2023-05-29T04:53:26;17.90;;;5.50;;
76552;SDS011;65395;53.168;18.156;2023-05-29T04:55:52;12.70;;;5.30;;
76552;SDS011;65395;53.168;18.156;2023-05-29T04:58:20;15.90;;;5.50;;
76552;SDS011;65395;53.168;18.156;2023-05-29T05:00:49;14.30;;;4.80;;
76552;SDS011;65395;53.168;18.156;2023-05-29T05:03:15;11.90;;;5.10;;
76552;SDS011;65395;53.168;18.156;2023-05-29T05:05:43;21.30;;;5.00;;
76552;SDS011;65395;53.168;18.156;2023-05-29T05:08:10;13.50;;;4.50;;
76552;SDS011;65395;53.168;18.156;2023-05-29T05:10:38;10.30;;;4.40;;
76552;SDS011;65395;53.168;18.156;2023-05-29T05:13:05;10.20;;;4.10;;
76552;SDS011;65395;53.168;18.156;2023-05-29T05:15:33;10.10;;;3.90;;
76552;SDS011;65395;53.168;18.156;2023-05-29T05:18:00;11.00;;;3.90;;
76552;SDS011;65395;53.168;18.156;2023-05-29T05:20:27;11.30;;;4.30;;
76552;SDS011;65395;53.168;18.156;2023-05-29T05:22:56;12.20;;;4.10;;
76552;SDS011;65395;53.168;18.156;2023-05-29T05:25:23;13.30;;;4.40;;
76552;SDS011;65395;53.168;18.156;2023-05-29T05:27:50;8.10;;;3.90;;
76552;SDS011;65395;53.168;18.156;2023-05-29T05:30:17;8.50;;;3.80;;
76552;SDS011;65395;53.168;18.156;2023-05-29T05:32:44;9.70;;;3.90;;
76552;SDS011;65395;53.168;18.156;2023-05-29T05:35:11;11.80;;;4.00;;
76552;SDS011;65395;53.168;18.156;2023-05-29T05:37:38;8.50;;;3.50;;
76552;SDS011;65395;53.168;18.156;2023-05-29T05:40:05;7.00;;;3.20;;
76552;SDS011;65395;53.168;18.156;2023-05-29T05:42:33;12.50;;;3.70;;
76552;SDS011;65395;53.168;18.156;2023-05-29T05:45:04;9.50;;;3.50;;
76552;SDS011;65395;53.168;18.156;2023-05-29T05:47:33;14.40;;;3.40;;
76552;SDS011;65395;53.168;18.156;2023-05-29T05:50:00;13.00;;;3.20;;
76552;SDS011;65395;53.168;18.156;2023-05-29T05:52:28;9.20;;;3.10;;
76552;SDS011;65395;53.168;18.156;2023-05-29T05:54:57;9.30;;;3.20;;
76552;SDS011;65395;53.168;18.156;2023-05-29T05:57:24;13.20;;;2.90;;
76552;SDS011;65395;53.168;18.156;2023-05-29T05:59:52;11.00;;;3.10;;
76552;SDS011;65395;53.168;18.156;2023-05-29T06:02:20;34.60;;;4.00;;
76552;SDS011;65395;53.168;18.156;2023-05-29T06:04:46;8.70;;;3.10;;
76552;SDS011;65395;53.168;18.156;2023-05-29T06:07:13;11.90;;;3.20;;
76552;SDS011;65395;53.168;18.156;2023-05-29T06:09:40;10.70;;;3.40;;
76552;SDS011;65395;53.168;18.156;2023-05-29T06:12:08;13.10;;;3.40;;
76552;SDS011;65395;53.168;18.156;2023-05-29T06:14:36;23.50;;;4.10;;
76552;SDS011;65395;53.168;18.156;2023-05-29T06:17:05;15.40;;;3.70;;
76552;SDS011;65395;53.168;18.156;2023-05-29T06:19:31;13.40;;;3.80;;
76552;SDS011;65395;53.168;18.156;2023-05-29T06:22:00;10.10;;;3.50;;
76552;SDS011;65395;53.168;18.156;2023-05-29T06:24:27;14.90;;;3.50;;
76552;SDS011;65395;53.168;18.156;2023-05-29T06:26:54;15.00;;;3.40;;
76552;SDS011;65395;53.168;18.156;2023-05-29T06:29:21;9.60;;;3.40;;
76552;SDS011;65395;53.168;18.156;2023-05-29T06:31:48;18.20;;;3.60;;
76552;SDS011;65395;53.168;18.156;2023-05-29T06:34:15;6.90;;;3.10;;
76552;SDS011;65395;53.168;18.156;2023-05-29T06:36:42;12.30;;;3.50;;
76552;SDS011;65395;53.168;18.156;2023-05-29T06:39:09;12.60;;;3.30;;
76552;SDS011;65395;53.168;18.156;2023-05-29T06:41:36;12.50;;;3.30;;
76552;SDS011;65395;53.168;18.156;2023-05-29T06:44:03;17.70;;;3.80;;
76552;SDS011;65395;53.168;18.156;2023-05-29T06:46:31;8.80;;;3.00;;
76552;SDS011;65395;53.168;18.156;2023-05-29T06:48:58;10.30;;;2.80;;
76552;SDS011;65395;53.168;18.156;2023-05-29T06:51:25;6.70;;;3.40;;
76552;SDS011;65395;53.168;18.156;2023-05-29T06:54:13;6.90;;;2.80;;
76552;SDS011;65395;53.168;18.156;2023-05-29T06:56:40;6.70;;;2.80;;
76552;SDS011;65395;53.168;18.156;2023-05-29T06:59:08;8.30;;;3.00;;
76552;SDS011;65395;53.168;18.156;2023-05-29T07:01:35;8.60;;;2.90;;
76552;SDS011;65395;53.168;18.156;2023-05-29T07:04:03;9.70;;;3.00;;
76552;SDS011;65395;53.168;18.156;2023-05-29T07:06:30;10.50;;;3.10;;
76552;SDS011;65395;53.168;18.156;2023-05-29T07:08:59;15.60;;;3.30;;
76552;SDS011;65395;53.168;18.156;2023-05-29T07:11:26;22.80;;;3.60;;
76552;SDS011;65395;53.168;18.156;2023-05-29T07:13:54;20.40;;;3.50;;
76552;SDS011;65395;53.168;18.156;2023-05-29T07:16:25;14.30;;;3.20;;
76552;SDS011;65395;53.168;18.156;2023-05-29T07:18:58;9.90;;;3.10;;
76552;SDS011;65395;53.168;18.156;2023-05-29T07:21:26;16.80;;;3.20;;
76552;SDS011;65395;53.168;18.156;2023-05-29T07:23:53;7.00;;;2.70;;
76552;SDS011;65395;53.168;18.156;2023-05-29T07:26:19;9.30;;;2.60;;
76552;SDS011;65395;53.168;18.156;2023-05-29T07:28:49;5.90;;;2.80;;
76552;SDS011;65395;53.168;18.156;2023-05-29T07:31:16;8.80;;;3.20;;
76552;SDS011;65395;53.168;18.156;2023-05-29T07:33:43;10.60;;;3.30;;
76552;SDS011;65395;53.168;18.156;2023-05-29T07:36:10;19.10;;;3.60;;
76552;SDS011;65395;53.168;18.156;2023-05-29T07:38:37;5.30;;;2.50;;
76552;SDS011;65395;53.168;18.156;2023-05-29T07:41:04;14.60;;;3.30;;
76552;SDS011;65395;53.168;18.156;2023-05-29T07:43:34;14.60;;;3.20;;
76552;SDS011;65395;53.168;18.156;2023-05-29T07:46:04;9.30;;;2.80;;
76552;SDS011;65395;53.168;18.156;2023-05-29T07:48:32;5.20;;;2.70;;
76552;SDS011;65395;53.168;18.156;2023-05-29T07:50:59;10.90;;;3.00;;
76552;SDS011;65395;53.168;18.156;2023-05-29T07:53:27;9.40;;;3.10;;
76552;SDS011;65395;53.168;18.156;2023-05-29T07:55:54;9.00;;;2.70;;
76552;SDS011;65395;53.168;18.156;2023-05-29T07:58:21;4.30;;;2.60;;
76552;SDS011;65395;53.168;18.156;2023-05-29T08:00:48;9.70;;;2.80;;
76552;SDS011;65395;53.168;18.156;2023-05-29T08:03:15;7.10;;;3.00;;
76552;SDS011;65395;53.168;18.156;2023-05-29T08:06:02;6.40;;;3.20;;
76552;SDS011;65395;53.168;18.156;2023-05-29T08:08:30;7.40;;;3.00;;
76552;SDS011;65395;53.168;18.156;2023-05-29T08:10:58;5.70;;;2.40;;
76552;SDS011;65395;53.168;18.156;2023-05-29T08:13:25;8.20;;;3.30;;
76552;SDS011;65395;53.168;18.156;2023-05-29T08:15:53;6.80;;;2.70;;
76552;SDS011;65395;53.168;18.156;2023-05-29T08:18:20;14.50;;;3.10;;
76552;SDS011;65395;53.168;18.156;2023-05-29T08:20:46;6.30;;;2.90;;
76552;SDS011;65395;53.168;18.156;2023-05-29T08:23:14;5.10;;;2.90;;
76552;SDS011;65395;53.168;18.156;2023-05-29T08:25:40;7.00;;;2.50;;
76552;SDS011;65395;53.168;18.156;2023-05-29T08:28:07;8.80;;;2.50;;
76552;SDS011;65395;53.168;18.156;2023-05-29T08:30:34;6.70;;;2.50;;
76552;SDS011;65395;53.168;18.156;2023-05-29T08:33:01;6.20;;;2.80;;
76552;SDS011;65395;53.168;18.156;2023-05-29T08:35:28;9.40;;;3.00;;
76552;SDS011;65395;53.168;18.156;2023-05-29T08:37:55;6.30;;;2.10;;
76552;SDS011;65395;53.168;18.156;2023-05-29T08:40:21;7.40;;;2.60;;
76552;SDS011;65395;53.168;18.156;2023-05-29T08:42:51;8.80;;;2.10;;
76552;SDS011;65395;53.168;18.156;2023-05-29T08:45:24;12.30;;;2.90;;
76552;SDS011;65395;53.168;18.156;2023-05-29T08:47:52;4.60;;;2.10;;
76552;SDS011;65395;53.168;18.156;2023-05-29T08:50:20;12.80;;;2.70;;
76552;SDS011;65395;53.168;18.156;2023-05-29T08:52:48;11.80;;;2.00;;
76552;SDS011;65395;53.168;18.156;2023-05-29T08:55:16;9.90;;;2.60;;
76552;SDS011;65395;53.168;18.156;2023-05-29T08:57:43;5.60;;;2.40;;
76552;SDS011;65395;53.168;18.156;2023-05-29T09:00:11;5.80;;;2.20;;
76552;SDS011;65395;53.168;18.156;2023-05-29T09:02:39;9.20;;;2.40;;
76552;SDS011;65395;53.168;18.156;2023-05-29T09:05:06;15.40;;;2.70;;
76552;SDS011;65395;53.168;18.156;2023-05-29T09:07:35;6.70;;;2.40;;
76552;SDS011;65395;53.168;18.156;2023-05-29T09:10:05;5.40;;;2.20;;
76552;SDS011;65395;53.168;18.156;2023-05-29T09:12:33;7.80;;;2.40;;
76552;SDS011;65395;53.168;18.156;2023-05-29T09:15:01;7.40;;;2.50;;
76552;SDS011;65395;53.168;18.156;2023-05-29T09:17:31;5.70;;;2.20;;
76552;SDS011;65395;53.168;18.156;2023-05-29T09:19:59;6.70;;;2.80;;
76552;SDS011;65395;53.168;18.156;2023-05-29T09:22:26;5.40;;;3.20;;
76552;SDS011;65395;53.168;18.156;2023-05-29T09:24:53;9.30;;;3.80;;
76552;SDS011;65395;53.168;18.156;2023-05-29T09:27:20;7.00;;;3.00;;
76552;SDS011;65395;53.168;18.156;2023-05-29T09:29:48;5.20;;;2.60;;
76552;SDS011;65395;53.168;18.156;2023-05-29T09:32:15;10.40;;;2.50;;
76552;SDS011;65395;53.168;18.156;2023-05-29T09:34:43;9.00;;;2.90;;
76552;SDS011;65395;53.168;18.156;2023-05-29T09:37:10;4.70;;;3.10;;
76552;SDS011;65395;53.168;18.156;2023-05-29T09:39:44;5.90;;;2.60;;
76552;SDS011;65395;53.168;18.156;2023-05-29T09:42:13;8.10;;;2.80;;
76552;SDS011;65395;53.168;18.156;2023-05-29T09:44:41;7.60;;;2.70;;
76552;SDS011;65395;53.168;18.156;2023-05-29T09:47:09;5.70;;;2.60;;
76552;SDS011;65395;53.168;18.156;2023-05-29T09:49:40;5.90;;;2.50;;
76552;SDS011;65395;53.168;18.156;2023-05-29T09:52:07;5.40;;;2.50;;
76552;SDS011;65395;53.168;18.156;2023-05-29T09:54:34;5.80;;;2.60;;
76552;SDS011;65395;53.168;18.156;2023-05-29T09:57:03;6.10;;;2.30;;
76552;SDS011;65395;53.168;18.156;2023-05-29T09:59:31;6.80;;;2.30;;
76552;SDS011;65395;53.168;18.156;2023-05-29T10:02:01;5.10;;;2.40;;
76552;SDS011;65395;53.168;18.156;2023-05-29T10:04:30;11.20;;;2.90;;
76552;SDS011;65395;53.168;18.156;2023-05-29T10:07:00;4.50;;;2.20;;
76552;SDS011;65395;53.168;18.156;2023-05-29T10:09:34;5.10;;;2.20;;
76552;SDS011;65395;53.168;18.156;2023-05-29T10:12:07;6.10;;;2.40;;
76552;SDS011;65395;53.168;18.156;2023-05-29T10:14:37;5.50;;;2.70;;
76552;SDS011;65395;53.168;18.156;2023-05-29T10:17:07;12.70;;;2.90;;
76552;SDS011;65395;53.168;18.156;2023-05-29T10:19:36;5.60;;;2.40;;
76552;SDS011;65395;53.168;18.156;2023-05-29T10:22:05;9.50;;;2.60;;
76552;SDS011;65395;53.168;18.156;2023-05-29T10:24:33;8.00;;;2.90;;
76552;SDS011;65395;53.168;18.156;2023-05-29T10:27:06;5.20;;;2.30;;
76552;SDS011;65395;53.168;18.156;2023-05-29T10:29:35;8.10;;;2.90;;
76552;SDS011;65395;53.168;18.156;2023-05-29T10:37:37;5.20;;;2.50;;
76552;SDS011;65395;53.168;18.156;2023-05-29T10:40:12;5.20;;;2.50;;
76552;SDS011;65395;53.168;18.156;2023-05-29T10:42:43;7.10;;;2.30;;
76552;SDS011;65395;53.168;18.156;2023-05-29T10:51:04;4.00;;;2.30;;
76552;SDS011;65395;53.168;18.156;2023-05-29T10:53:33;3.80;;;2.10;;
76552;SDS011;65395;53.168;18.156;2023-05-29T10:56:02;4.30;;;2.30;;
76552;SDS011;65395;53.168;18.156;2023-05-29T10:58:33;5.30;;;2.30;;
76552;SDS011;65395;53.168;18.156;2023-05-29T11:00:59;7.70;;;2.30;;
76552;SDS011;65395;53.168;18.156;2023-05-29T11:03:30;9.60;;;2.20;;
76552;SDS011;65395;53.168;18.156;2023-05-29T11:05:59;5.00;;;2.30;;
76552;SDS011;65395;53.168;18.156;2023-05-29T11:08:29;6.80;;;2.60;;
76552;SDS011;65395;53.168;18.156;2023-05-29T11:11:02;6.30;;;2.20;;
76552;SDS011;65395;53.168;18.156;2023-05-29T11:13:33;7.30;;;2.10;;
76552;SDS011;65395;53.168;18.156;2023-05-29T11:16:05;7.70;;;2.20;;
76552;SDS011;65395;53.168;18.156;2023-05-29T11:18:43;6.50;;;2.30;;
76552;SDS011;65395;53.168;18.156;2023-05-29T11:21:17;2.60;;;1.70;;
76552;SDS011;65395;53.168;18.156;2023-05-29T11:23:59;6.40;;;2.00;;
76552;SDS011;65395;53.168;18.156;2023-05-29T11:26:30;6.30;;;2.50;;
76552;SDS011;65395;53.168;18.156;2023-05-29T11:29:02;7.10;;;2.10;;
76552;SDS011;65395;53.168;18.156;2023-05-29T11:31:31;5.60;;;2.30;;
76552;SDS011;65395;53.168;18.156;2023-05-29T11:34:01;13.60;;;2.30;;
76552;SDS011;65395;53.168;18.156;2023-05-29T11:36:31;5.40;;;2.40;;
76552;SDS011;65395;53.168;18.156;2023-05-29T11:38:59;7.70;;;2.10;;
76552;SDS011;65395;53.168;18.156;2023-05-29T11:41:27;12.30;;;2.20;;
76552;SDS011;65395;53.168;18.156;2023-05-29T11:43:55;13.20;;;2.20;;
76552;SDS011;65395;53.168;18.156;2023-05-29T11:46:28;3.20;;;1.90;;
76552;SDS011;65395;53.168;18.156;2023-05-29T11:48:59;7.80;;;2.10;;
76552;SDS011;65395;53.168;18.156;2023-05-29T11:51:27;16.40;;;2.40;;
76552;SDS011;65395;53.168;18.156;2023-05-29T11:53:54;6.10;;;1.90;;
76552;SDS011;65395;53.168;18.156;2023-05-29T11:56:25;11.70;;;2.30;;
76552;SDS011;65395;53.168;18.156;2023-05-29T11:58:53;7.20;;;2.00;;
76552;SDS011;65395;53.168;18.156;2023-05-29T12:01:23;17.00;;;2.40;;
76552;SDS011;65395;53.168;18.156;2023-05-29T12:03:51;6.80;;;1.90;;
76552;SDS011;65395;53.168;18.156;2023-05-29T12:08:58;6.40;;;2.20;;
76552;SDS011;65395;53.168;18.156;2023-05-29T12:11:25;4.00;;;2.10;;
76552;SDS011;65395;53.168;18.156;2023-05-29T12:13:59;9.20;;;2.40;;
76552;SDS011;65395;53.168;18.156;2023-05-29T12:16:27;6.00;;;1.80;;
76552;SDS011;65395;53.168;18.156;2023-05-29T12:18:57;3.10;;;1.80;;
76552;SDS011;65395;53.168;18.156;2023-05-29T12:21:24;8.00;;;2.10;;
76552;SDS011;65395;53.168;18.156;2023-05-29T12:23:51;4.30;;;2.00;;
76552;SDS011;65395;53.168;18.156;2023-05-29T12:26:23;6.80;;;2.20;;
76552;SDS011;65395;53.168;18.156;2023-05-29T12:28:52;5.30;;;2.00;;
76552;SDS011;65395;53.168;18.156;2023-05-29T12:31:26;3.20;;;1.80;;
76552;SDS011;65395;53.168;18.156;2023-05-29T12:34:07;7.00;;;2.50;;
76552;SDS011;65395;53.168;18.156;2023-05-29T12:36:35;5.20;;;2.10;;
76552;SDS011;65395;53.168;18.156;2023-05-29T12:39:05;5.50;;;2.00;;
76552;SDS011;65395;53.168;18.156;2023-05-29T12:41:35;6.80;;;2.00;;
76552;SDS011;65395;53.168;18.156;2023-05-29T12:44:03;6.30;;;1.80;;
76552;SDS011;65395;53.168;18.156;2023-05-29T12:46:37;4.40;;;2.10;;
76552;SDS011;65395;53.168;18.156;2023-05-29T12:51:45;5.80;;;2.10;;
76552;SDS011;65395;53.168;18.156;2023-05-29T12:54:14;12.20;;;2.60;;
76552;SDS011;65395;53.168;18.156;2023-05-29T12:56:42;5.80;;;2.30;;
76552;SDS011;65395;53.168;18.156;2023-05-29T12:59:11;3.10;;;1.90;;
76552;SDS011;65395;53.168;18.156;2023-05-29T13:01:38;6.50;;;2.10;;
76552;SDS011;65395;53.168;18.156;2023-05-29T13:04:05;5.70;;;2.00;;
76552;SDS011;65395;53.168;18.156;2023-05-29T13:06:35;6.30;;;2.00;;
76552;SDS011;65395;53.168;18.156;2023-05-29T13:09:03;3.60;;;1.80;;
76552;SDS011;65395;53.168;18.156;2023-05-29T13:11:31;5.30;;;2.20;;
76552;SDS011;65395;53.168;18.156;2023-05-29T13:13:58;3.80;;;1.90;;
76552;SDS011;65395;53.168;18.156;2023-05-29T13:16:24;5.00;;;2.20;;
76552;SDS011;65395;53.168;18.156;2023-05-29T13:18:51;7.30;;;2.10;;
76552;SDS011;65395;53.168;18.156;2023-05-29T13:21:18;4.00;;;1.80;;
76552;SDS011;65395;53.168;18.156;2023-05-29T13:23:45;5.20;;;2.20;;
76552;SDS011;65395;53.168;18.156;2023-05-29T13:26:12;3.90;;;1.80;;
76552;SDS011;65395;53.168;18.156;2023-05-29T13:28:38;4.80;;;1.80;;
76552;SDS011;65395;53.168;18.156;2023-05-29T13:31:05;7.20;;;1.90;;
76552;SDS011;65395;53.168;18.156;2023-05-29T13:33:32;5.00;;;2.00;;
76552;SDS011;65395;53.168;18.156;2023-05-29T13:35:59;4.90;;;2.10;;
76552;SDS011;65395;53.168;18.156;2023-05-29T13:38:26;5.60;;;2.00;;
76552;SDS011;65395;53.168;18.156;2023-05-29T13:40:53;4.20;;;2.40;;
76552;SDS011;65395;53.168;18.156;2023-05-29T13:43:19;5.00;;;1.80;;
76552;SDS011;65395;53.168;18.156;2023-05-29T13:45:46;5.40;;;2.20;;
76552;SDS011;65395;53.168;18.156;2023-05-29T13:48:13;10.30;;;2.30;;
76552;SDS011;65395;53.168;18.156;2023-05-29T13:50:39;3.80;;;2.00;;
76552;SDS011;65395;53.168;18.156;2023-05-29T13:53:06;5.00;;;2.10;;
76552;SDS011;65395;53.168;18.156;2023-05-29T13:55:33;3.80;;;1.70;;
76552;SDS011;65395;53.168;18.156;2023-05-29T13:58:00;5.80;;;2.10;;
76552;SDS011;65395;53.168;18.156;2023-05-29T14:00:27;7.50;;;2.30;;
76552;SDS011;65395;53.168;18.156;2023-05-29T14:02:54;4.40;;;2.00;;
76552;SDS011;65395;53.168;18.156;2023-05-29T14:05:20;6.60;;;1.90;;
76552;SDS011;65395;53.168;18.156;2023-05-29T14:07:47;8.30;;;2.30;;
76552;SDS011;65395;53.168;18.156;2023-05-29T14:10:14;3.60;;;1.90;;
76552;SDS011;65395;53.168;18.156;2023-05-29T14:12:41;17.00;;;2.40;;
76552;SDS011;65395;53.168;18.156;2023-05-29T14:15:08;5.60;;;2.40;;
76552;SDS011;65395;53.168;18.156;2023-05-29T14:17:36;7.20;;;2.00;;
76552;SDS011;65395;53.168;18.156;2023-05-29T14:20:03;8.00;;;2.10;;
76552;SDS011;65395;53.168;18.156;2023-05-29T14:22:34;24.60;;;4.20;;
76552;SDS011;65395;53.168;18.156;2023-05-29T14:25:01;3.10;;;1.90;;
76552;SDS011;65395;53.168;18.156;2023-05-29T14:27:30;4.60;;;2.20;;
76552;SDS011;65395;53.168;18.156;2023-05-29T14:29:56;5.30;;;2.00;;
76552;SDS011;65395;53.168;18.156;2023-05-29T14:32:23;10.30;;;2.50;;
76552;SDS011;65395;53.168;18.156;2023-05-29T14:34:50;6.00;;;2.10;;
76552;SDS011;65395;53.168;18.156;2023-05-29T14:37:17;8.60;;;3.40;;
76552;SDS011;65395;53.168;18.156;2023-05-29T14:39:44;6.40;;;2.20;;
76552;SDS011;65395;53.168;18.156;2023-05-29T14:42:10;14.20;;;2.30;;
76552;SDS011;65395;53.168;18.156;2023-05-29T14:44:37;3.40;;;1.90;;
76552;SDS011;65395;53.168;18.156;2023-05-29T14:47:04;7.30;;;2.80;;
76552;SDS011;65395;53.168;18.156;2023-05-29T14:49:31;9.40;;;2.60;;
76552;SDS011;65395;53.168;18.156;2023-05-29T14:51:59;6.70;;;2.50;;
76552;SDS011;65395;53.168;18.156;2023-05-29T14:54:29;8.30;;;2.60;;
76552;SDS011;65395;53.168;18.156;2023-05-29T14:56:56;4.10;;;2.10;;
76552;SDS011;65395;53.168;18.156;2023-05-29T14:59:23;4.80;;;2.10;;
76552;SDS011;65395;53.168;18.156;2023-05-29T15:01:51;37.40;;;3.70;;